createdAt,value
2022-12-26T00:00:23.903Z,90.39
2022-12-26T00:02:50.551Z,90.38
2022-12-26T00:05:17.187Z,90.35
2022-12-26T00:07:43.803Z,90.57
2022-12-26T00:10:10.359Z,90.80
2022-12-26T00:12:37.002Z,90.74
2022-12-26T00:15:04.007Z,90.49
2022-12-26T00:17:30.525Z,90.42
2022-12-26T00:19:57.051Z,90.70
2022-12-26T00:22:23.550Z,90.06
2022-12-26T00:24:50.049Z,90.41
2022-12-26T00:27:16.515Z,90.71
2022-12-26T00:29:43.493Z,90.29
2022-12-26T00:32:09.965Z,90.36
2022-12-26T00:34:37.103Z,90.36
2022-12-26T00:37:03.589Z,90.43
2022-12-26T00:39:30.151Z,90.07
2022-12-26T00:41:59.096Z,90.12
2022-12-26T00:44:25.841Z,90.16
2022-12-26T00:46:53.345Z,90.28
2022-12-26T00:49:19.942Z,90.22
2022-12-26T00:51:46.455Z,90.26
2022-12-26T00:54:12.988Z,90.62
2022-12-26T00:56:39.496Z,90.25
2022-12-26T00:59:05.999Z,89.88
2022-12-26T01:01:32.805Z,89.90
2022-12-26T01:03:59.790Z,89.80
2022-12-26T01:06:26.264Z,90.12
2022-12-26T01:08:53.471Z,90.55
2022-12-26T01:11:38.645Z,90.43
2022-12-26T01:14:05.951Z,89.99
2022-12-26T01:16:32.586Z,90.45
2022-12-26T01:19:00.940Z,89.86
2022-12-26T01:21:28.109Z,89.98
2022-12-26T01:23:55.140Z,90.14
2022-12-26T01:26:21.633Z,90.08
2022-12-26T01:28:49.118Z,90.21
2022-12-26T01:31:15.867Z,90.07
2022-12-26T01:33:42.443Z,89.74
2022-12-26T01:36:08.988Z,90.13
2022-12-26T01:38:35.514Z,89.69
2022-12-26T01:41:17.430Z,89.93
2022-12-26T01:43:56.222Z,89.54
2022-12-26T01:46:27.494Z,89.32
2022-12-26T01:48:55.535Z,89.93
2022-12-26T01:51:23.863Z,89.69
2022-12-26T01:53:53.118Z,89.42
2022-12-26T01:56:23.996Z,89.51
2022-12-26T01:58:54.605Z,89.28
2022-12-26T02:01:22.249Z,89.44
2022-12-26T02:04:07.222Z,89.35
2022-12-26T02:06:34.354Z,89.28
2022-12-26T02:09:01.097Z,89.09
2022-12-26T02:11:38.527Z,89.15
2022-12-26T02:14:08.590Z,88.81
2022-12-26T02:16:36.522Z,89.13
2022-12-26T02:19:04.795Z,89.05
2022-12-26T02:21:57.927Z,89.00
2022-12-26T02:25:01.898Z,88.95
2022-12-26T02:31:05.837Z,89.06
2022-12-26T02:33:45.626Z,88.90
2022-12-26T02:36:25.266Z,88.97
2022-12-26T02:39:43.717Z,89.05
2022-12-26T02:42:34.228Z,89.11
2022-12-26T02:45:36.736Z,89.21
2022-12-26T02:48:36.999Z,89.10
2022-12-26T02:51:38.331Z,89.38
2022-12-26T02:54:34.117Z,88.96
2022-12-26T02:57:23.687Z,89.70
2022-12-26T03:00:13.348Z,89.30
2022-12-26T03:03:18.923Z,89.16
2022-12-26T03:06:07.675Z,89.23
2022-12-26T03:08:57.228Z,88.86
2022-12-26T03:12:01.445Z,89.15
2022-12-26T03:14:36.577Z,89.18
2022-12-26T03:17:21.221Z,89.29
2022-12-26T03:20:00.778Z,88.95
2022-12-26T03:22:37.681Z,88.95
2022-12-26T03:25:26.277Z,89.01
2022-12-26T03:27:53.372Z,88.64
2022-12-26T03:30:38.529Z,88.67
2022-12-26T03:33:05.145Z,88.87
2022-12-26T03:35:33.894Z,88.74
2022-12-26T03:38:05.719Z,88.28
2022-12-26T03:41:07.704Z,88.55
2022-12-26T03:44:00.931Z,88.15
2022-12-26T03:47:06.811Z,88.12
2022-12-26T03:49:58.008Z,88.24
2022-12-26T03:53:02.154Z,88.17
2022-12-26T03:55:53.985Z,88.09
2022-12-26T03:58:51.475Z,87.53
2022-12-26T04:01:39.164Z,88.61
2022-12-26T04:04:27.410Z,88.29
2022-12-26T04:07:17.142Z,88.28
2022-12-26T04:10:06.831Z,88.74
2022-12-26T04:12:52.493Z,88.17
2022-12-26T04:15:45.104Z,87.62
2022-12-26T04:18:36.873Z,88.00
2022-12-26T04:21:34.208Z,88.03
2022-12-26T04:24:25.879Z,87.99
2022-12-26T04:27:14.146Z,87.84
2022-12-26T04:29:59.277Z,88.03
2022-12-26T04:32:54.271Z,87.80
2022-12-26T04:36:01.463Z,86.99
2022-12-26T04:38:49.051Z,87.66
2022-12-26T04:41:35.444Z,87.54
2022-12-26T04:44:06.580Z,88.07
2022-12-26T04:46:34.641Z,87.95
2022-12-26T04:49:23.477Z,88.02
2022-12-26T04:51:50.261Z,87.95
2022-12-26T04:54:17.503Z,87.89
2022-12-26T04:56:44.137Z,87.58
2022-12-26T04:59:12.750Z,87.50
2022-12-26T05:01:57.841Z,87.72
2022-12-26T05:04:42.939Z,87.68
2022-12-26T05:07:34.514Z,87.43
2022-12-26T05:10:01.252Z,87.38
2022-12-26T05:12:27.702Z,87.82
2022-12-26T05:14:54.514Z,87.40
2022-12-26T05:17:39.346Z,87.25
2022-12-26T05:20:24.871Z,87.07
2022-12-26T05:23:11.185Z,86.92
2022-12-26T05:25:59.030Z,87.19
2022-12-26T05:28:43.872Z,86.86
2022-12-26T05:31:13.768Z,87.04
2022-12-26T05:33:59.237Z,87.47
2022-12-26T05:36:28.948Z,87.14
2022-12-26T05:38:56.175Z,87.30
2022-12-26T05:41:23.818Z,87.19
2022-12-26T05:43:50.335Z,87.35
2022-12-26T05:46:16.943Z,87.52
2022-12-26T05:48:43.441Z,87.09
2022-12-26T05:51:09.958Z,87.25
2022-12-26T05:53:36.465Z,87.30
2022-12-26T05:56:05.161Z,86.98
2022-12-26T05:58:31.715Z,87.26
2022-12-26T06:01:24.936Z,86.88
2022-12-26T06:03:53.617Z,87.21
2022-12-26T06:06:20.968Z,86.55
2022-12-26T06:08:48.829Z,86.91
2022-12-26T06:11:15.669Z,86.97
2022-12-26T06:13:42.179Z,86.53
2022-12-26T06:16:14.257Z,86.72
2022-12-26T06:18:41.178Z,86.55
2022-12-26T06:21:15.642Z,86.16
2022-12-26T06:23:42.316Z,86.45
2022-12-26T06:26:10.364Z,86.13
2022-12-26T06:28:37.530Z,86.27
2022-12-26T06:31:06.272Z,86.34
2022-12-26T06:33:32.837Z,86.40
2022-12-26T06:36:07.162Z,86.04
2022-12-26T06:38:33.954Z,85.98
2022-12-26T06:41:00.492Z,85.71
2022-12-26T06:43:27.360Z,85.59
2022-12-26T06:46:00.911Z,85.14
2022-12-26T06:48:27.630Z,85.92
2022-12-26T06:50:54.550Z,85.90
2022-12-26T06:53:22.050Z,85.70
2022-12-26T06:55:48.727Z,85.84
2022-12-26T06:58:15.795Z,86.02
2022-12-26T07:00:42.372Z,86.23
2022-12-26T07:03:08.895Z,86.13
2022-12-26T07:05:40.745Z,85.64
2022-12-26T07:08:07.269Z,86.06
2022-12-26T07:10:37.237Z,85.67
2022-12-26T07:13:04.482Z,85.88
2022-12-26T07:15:31.404Z,85.57
2022-12-26T07:17:57.920Z,85.55
2022-12-26T07:20:25.199Z,86.16
2022-12-26T07:22:52.139Z,85.58
2022-12-26T07:25:18.751Z,86.01
2022-12-26T07:27:45.399Z,85.91
2022-12-26T07:30:12.136Z,85.83
2022-12-26T07:32:38.620Z,85.59
2022-12-26T07:35:05.490Z,86.13
2022-12-26T07:37:31.986Z,86.11
2022-12-26T07:39:59.355Z,85.98
2022-12-26T07:42:36.690Z,85.83
2022-12-26T07:45:04.535Z,85.50
2022-12-26T07:47:31.394Z,85.30
2022-12-26T07:49:58.313Z,85.47
2022-12-26T07:52:25.705Z,85.66
2022-12-26T07:54:52.223Z,85.33
2022-12-26T08:00:05.924Z,85.48
2022-12-26T08:02:38.758Z,85.65
2022-12-26T08:05:05.635Z,85.46
2022-12-26T08:07:32.497Z,85.16
2022-12-26T08:09:58.991Z,85.36
2022-12-26T08:12:30.247Z,85.35
2022-12-26T08:14:56.808Z,85.95
2022-12-26T08:17:26.149Z,85.93
2022-12-26T08:19:52.764Z,85.69
2022-12-26T08:22:19.529Z,85.63
2022-12-26T08:24:46.137Z,86.11
2022-12-26T08:27:12.656Z,85.78
2022-12-26T08:29:39.125Z,85.48
2022-12-26T08:32:05.628Z,85.42
2022-12-26T08:34:35.652Z,85.37
2022-12-26T08:37:02.564Z,85.36
2022-12-26T08:39:29.288Z,85.55
2022-12-26T08:41:55.826Z,85.89
2022-12-26T08:44:27.295Z,85.72
2022-12-26T08:46:54.641Z,85.46
2022-12-26T08:49:21.265Z,85.48
2022-12-26T08:51:48.221Z,85.47
2022-12-26T08:54:14.756Z,85.63
2022-12-26T08:56:41.333Z,85.63
2022-12-26T08:59:07.889Z,85.72
2022-12-26T09:01:34.712Z,85.70
2022-12-26T09:04:03.976Z,86.04
2022-12-26T09:06:36.201Z,85.54
2022-12-26T09:09:03.580Z,85.91
2022-12-26T09:11:30.623Z,85.91
2022-12-26T09:13:59.087Z,85.48
2022-12-26T09:16:31.548Z,85.60
2022-12-26T09:19:01.513Z,85.44
2022-12-26T09:21:28.950Z,85.67
2022-12-26T09:23:59.855Z,85.68
2022-12-26T09:26:28.120Z,85.53
2022-12-26T09:28:55.098Z,85.13
2022-12-26T09:31:24.419Z,85.58
2022-12-26T09:33:56.558Z,84.93
2022-12-26T09:36:28.861Z,84.89
2022-12-26T09:38:59.458Z,84.46
2022-12-26T09:41:41.018Z,84.98
2022-12-26T09:44:22.243Z,84.48
2022-12-26T09:46:57.708Z,84.61
2022-12-26T09:49:40.693Z,83.81
2022-12-26T09:52:13.095Z,84.24
2022-12-26T09:54:47.796Z,84.37
2022-12-26T09:57:16.899Z,84.42
2022-12-26T09:59:56.747Z,84.26
2022-12-26T10:02:24.738Z,83.93
2022-12-26T10:04:56.118Z,84.29
2022-12-26T10:07:43.760Z,84.05
2022-12-26T10:10:14.576Z,84.21
2022-12-26T10:13:11.703Z,83.21
2022-12-26T10:15:49.564Z,83.63
2022-12-26T10:18:32.737Z,82.87
2022-12-26T10:21:36.208Z,82.32
2022-12-26T10:24:23.914Z,83.12
2022-12-26T10:26:53.191Z,82.92
2022-12-26T10:29:29.620Z,83.00
2022-12-26T10:32:07.427Z,82.57
2022-12-26T10:34:39.137Z,82.90
2022-12-26T10:37:25.651Z,82.53
2022-12-26T10:39:56.156Z,82.51
2022-12-26T10:42:38.789Z,82.52
2022-12-26T10:45:37.606Z,82.47
2022-12-26T10:48:04.383Z,82.83
2022-12-26T10:50:32.590Z,82.55
2022-12-26T10:52:59.917Z,81.98
2022-12-26T10:55:31.284Z,82.32
2022-12-26T10:58:16.400Z,81.82
2022-12-26T11:00:42.929Z,82.25
2022-12-26T11:03:11.683Z,82.10
2022-12-26T11:06:06.974Z,81.61
2022-12-26T11:08:43.009Z,81.84
2022-12-26T11:11:14.672Z,82.01
2022-12-26T11:13:52.533Z,81.76
2022-12-26T11:16:30.858Z,81.17
2022-12-26T11:18:58.270Z,81.67
2022-12-26T11:21:27.149Z,81.70
2022-12-26T11:24:09.630Z,81.83
2022-12-26T11:26:37.289Z,81.44
2022-12-26T11:29:24.090Z,81.30
2022-12-26T11:31:59.231Z,81.23
2022-12-26T11:34:37.532Z,81.19
2022-12-26T11:37:08.019Z,81.20
2022-12-26T11:39:36.601Z,81.24
2022-12-26T11:42:21.036Z,81.33
2022-12-26T11:44:52.373Z,81.27
2022-12-26T11:47:21.114Z,81.27
2022-12-26T11:50:06.929Z,81.50
2022-12-26T11:52:43.883Z,81.60
2022-12-26T11:55:22.526Z,80.92
2022-12-26T11:58:10.591Z,81.09
2022-12-26T12:00:42.801Z,81.36
2022-12-26T12:03:12.418Z,81.21
2022-12-26T12:05:46.052Z,81.29
2022-12-26T12:08:43.577Z,81.53
2022-12-26T12:11:42.405Z,81.28
2022-12-26T12:14:25.476Z,81.45
2022-12-26T12:17:26.393Z,81.49
2022-12-26T12:20:04.459Z,81.49
2022-12-26T12:22:49.745Z,81.39
2022-12-26T12:25:22.309Z,81.65
2022-12-26T12:28:21.314Z,81.67
2022-12-26T12:31:32.913Z,82.27
2022-12-26T12:34:31.500Z,82.34
2022-12-26T12:37:15.407Z,82.49
2022-12-26T12:40:20.402Z,81.91
2022-12-26T12:43:06.233Z,81.99
2022-12-26T12:46:06.083Z,81.87
2022-12-26T12:48:44.723Z,82.05
2022-12-26T12:51:45.423Z,81.63
2022-12-26T12:54:32.931Z,81.71
2022-12-26T12:57:13.571Z,82.21
2022-12-26T12:59:51.622Z,81.73
2022-12-26T13:02:36.049Z,81.81
2022-12-26T13:05:11.745Z,82.05
2022-12-26T13:07:46.941Z,81.58
2022-12-26T13:10:24.421Z,81.68
2022-12-26T13:12:51.729Z,81.73
2022-12-26T13:15:27.381Z,81.19
2022-12-26T13:18:00.766Z,81.37
2022-12-26T13:20:43.664Z,81.51
2022-12-26T13:23:44.207Z,80.94
2022-12-26T13:26:27.139Z,81.52
2022-12-26T13:28:59.833Z,80.73
2022-12-26T13:31:32.750Z,81.42
2022-12-26T13:33:59.510Z,81.42
2022-12-26T13:36:34.977Z,81.02
2022-12-26T13:39:01.540Z,81.12
2022-12-26T13:41:48.198Z,80.98
2022-12-26T13:44:20.644Z,80.30
2022-12-26T13:46:47.255Z,81.17
2022-12-26T13:49:37.093Z,80.48
2022-12-26T13:52:29.850Z,80.85
2022-12-26T13:55:59.072Z,80.73
2022-12-26T13:58:47.857Z,80.56
2022-12-26T14:01:44.718Z,80.82
2022-12-26T14:04:23.218Z,81.00
2022-12-26T14:07:21.889Z,80.93
2022-12-26T14:09:58.832Z,81.12
2022-12-26T14:12:46.029Z,80.88
2022-12-26T14:15:18.782Z,80.65
2022-12-26T14:18:26.643Z,81.04
2022-12-26T14:21:12.228Z,80.75
2022-12-26T14:24:06.612Z,80.73
2022-12-26T14:26:41.618Z,80.77
2022-12-26T14:29:48.809Z,80.23
2022-12-26T14:32:34.949Z,80.51
2022-12-26T14:35:15.996Z,80.54
2022-12-26T14:37:57.518Z,80.35
2022-12-26T14:40:37.842Z,80.41
2022-12-26T14:43:24.705Z,80.20
2022-12-26T14:45:52.507Z,80.44
2022-12-26T14:48:19.058Z,79.94
2022-12-26T14:50:56.785Z,79.72
2022-12-26T14:53:29.174Z,79.83
2022-12-26T14:56:00.188Z,79.75
2022-12-26T14:58:35.692Z,79.41
2022-12-26T15:01:18.114Z,79.49
2022-12-26T15:04:03.548Z,79.19
2022-12-26T15:07:01.496Z,79.29
2022-12-26T15:10:05.038Z,79.02
2022-12-26T15:13:09.284Z,79.32
2022-12-26T15:16:06.740Z,79.57
2022-12-26T15:18:56.266Z,79.64
2022-12-26T15:21:41.728Z,80.66
2022-12-26T15:27:44.995Z,80.51
2022-12-26T15:30:21.593Z,80.44
2022-12-26T15:33:06.519Z,80.88
2022-12-26T15:35:38.530Z,80.89
2022-12-26T15:38:26.305Z,81.03
2022-12-26T15:41:23.066Z,81.29
2022-12-26T15:43:59.536Z,81.80
2022-12-26T15:46:41.512Z,81.59
2022-12-26T15:49:30.727Z,81.32
2022-12-26T15:52:06.461Z,81.50
2022-12-26T15:54:55.144Z,81.73
2022-12-26T15:57:40.191Z,81.67
2022-12-26T16:00:17.090Z,81.82
2022-12-26T16:02:47.683Z,81.80
2022-12-26T16:05:26.634Z,81.66
2022-12-26T16:08:02.524Z,82.25
2022-12-26T16:10:32.133Z,81.85
2022-12-26T16:13:14.731Z,81.88
2022-12-26T16:15:46.286Z,81.91
2022-12-26T16:18:21.659Z,82.09
2022-12-26T16:21:08.825Z,81.49
2022-12-26T16:23:38.421Z,81.59
2022-12-26T16:26:04.972Z,81.95
2022-12-26T16:28:36.865Z,81.59
2022-12-26T16:31:04.047Z,81.26
2022-12-26T16:33:40.961Z,81.13
2022-12-26T16:36:09.165Z,81.27
2022-12-26T16:38:35.694Z,81.16
2022-12-26T16:41:03.858Z,81.51
2022-12-26T16:43:31.806Z,81.24
2022-12-26T16:46:02.575Z,81.15
2022-12-26T16:48:31.153Z,81.15
2022-12-26T16:51:00.147Z,81.02
2022-12-26T16:53:35.810Z,80.83
2022-12-26T16:56:28.281Z,80.37
2022-12-26T16:59:17.266Z,80.61
2022-12-26T17:01:49.356Z,80.20
2022-12-26T17:04:18.979Z,80.53
2022-12-26T17:06:55.767Z,80.24
2022-12-26T17:09:24.019Z,80.07
2022-12-26T17:11:54.147Z,79.67
2022-12-26T17:14:27.940Z,79.55
2022-12-26T17:17:03.347Z,79.32
2022-12-26T17:19:32.452Z,79.23
2022-12-26T17:22:20.564Z,78.86
2022-12-26T17:24:51.576Z,78.61
2022-12-26T17:27:23.941Z,78.68
2022-12-26T17:29:58.705Z,78.18
2022-12-26T17:32:30.078Z,78.52
2022-12-26T17:35:00.552Z,78.39
2022-12-26T17:37:27.570Z,77.91
2022-12-26T17:40:02.784Z,77.56
2022-12-26T17:42:36.469Z,77.59
2022-12-26T17:45:03.088Z,77.26
2022-12-26T17:47:29.664Z,77.20
2022-12-26T17:49:56.531Z,77.63
2022-12-26T17:52:26.436Z,77.54
2022-12-26T17:54:53.256Z,77.34
2022-12-26T17:57:22.749Z,77.48
2022-12-26T17:59:50.241Z,77.59
2022-12-26T18:02:16.984Z,77.62
2022-12-26T18:04:43.647Z,77.47
2022-12-26T18:07:27.244Z,77.39
2022-12-26T18:09:57.060Z,76.90
2022-12-26T18:12:23.599Z,77.05
2022-12-26T18:14:50.140Z,77.28
2022-12-26T18:17:19.474Z,77.23
2022-12-26T18:19:46.833Z,77.15
2022-12-26T18:22:14.965Z,77.53
2022-12-26T18:24:41.537Z,77.61
2022-12-26T18:27:16.163Z,77.28
2022-12-26T18:29:43.930Z,77.28
2022-12-26T18:32:22.559Z,77.45
2022-12-26T18:34:49.156Z,77.86
2022-12-26T18:37:15.684Z,77.88
2022-12-26T18:39:42.232Z,77.78
2022-12-26T18:42:16.253Z,77.33
2022-12-26T18:44:43.249Z,77.84
2022-12-26T18:47:13.046Z,77.47
2022-12-26T18:49:40.509Z,77.59
2022-12-26T18:52:07.055Z,77.97
2022-12-26T18:54:33.599Z,78.01
2022-12-26T18:57:00.105Z,77.83
2022-12-26T18:59:26.639Z,77.39
2022-12-26T19:01:53.217Z,77.92
2022-12-26T19:04:19.873Z,77.26
2022-12-26T19:06:46.498Z,77.33
2022-12-26T19:09:14.037Z,77.00
2022-12-26T19:11:41.724Z,77.26
2022-12-26T19:14:09.016Z,77.16
2022-12-26T19:16:37.938Z,76.10
2022-12-26T19:19:04.951Z,76.41
2022-12-26T19:21:31.410Z,75.93
2022-12-26T19:23:57.902Z,75.38
2022-12-26T19:26:24.430Z,74.79
2022-12-26T19:28:52.358Z,75.40
2022-12-26T19:31:19.392Z,74.92
2022-12-26T19:33:45.924Z,74.28
2022-12-26T19:36:12.536Z,74.31
2022-12-26T19:38:39.296Z,73.80
2022-12-26T19:41:08.902Z,74.13
2022-12-26T19:43:35.512Z,74.34
2022-12-26T19:46:05.088Z,73.84
2022-12-26T19:48:32.607Z,73.48
2022-12-26T19:51:07.151Z,73.67
2022-12-26T19:53:34.518Z,74.00
2022-12-26T19:56:19.500Z,73.36
2022-12-26T19:58:47.891Z,73.17
2022-12-26T20:01:20.631Z,73.74
2022-12-26T20:03:47.679Z,73.60
2022-12-26T20:06:16.626Z,74.00
2022-12-26T20:08:44.667Z,73.81
2022-12-26T20:11:14.153Z,73.82
2022-12-26T20:13:41.930Z,73.79
2022-12-26T20:16:37.513Z,73.46
2022-12-26T20:18:58.303Z,73.12
2022-12-26T20:21:24.926Z,72.97
2022-12-26T20:23:51.590Z,72.92
2022-12-26T20:26:20.706Z,72.28
2022-12-26T20:28:47.361Z,72.04
2022-12-26T20:31:16.515Z,71.85
2022-12-26T20:33:45.171Z,70.97
2022-12-26T20:36:20.300Z,71.10
2022-12-26T20:38:47.361Z,71.67
2022-12-26T20:41:13.953Z,71.24
2022-12-26T20:43:40.602Z,71.59
2022-12-26T20:46:12.989Z,71.64
2022-12-26T20:48:39.638Z,71.68
2022-12-26T20:51:07.942Z,71.83
2022-12-26T20:53:35.106Z,72.32
2022-12-26T20:56:01.940Z,71.93
2022-12-26T20:58:30.076Z,72.72
2022-12-26T21:00:57.603Z,72.23
2022-12-26T21:03:24.460Z,72.38
2022-12-26T21:05:51.426Z,72.36
2022-12-26T21:08:18.282Z,72.25
2022-12-26T21:10:44.862Z,72.31
2022-12-26T21:13:12.498Z,72.59
2022-12-26T21:15:39.411Z,72.12
2022-12-26T21:18:05.887Z,72.34
2022-12-26T21:20:32.420Z,72.03
2022-12-26T21:22:58.947Z,71.97
2022-12-26T21:25:25.493Z,71.74
2022-12-26T21:27:54.936Z,71.28
2022-12-26T21:30:25.415Z,71.79
2022-12-26T21:32:51.995Z,71.41
2022-12-26T21:35:18.515Z,71.79
2022-12-26T21:37:53.943Z,71.67
2022-12-26T21:40:23.576Z,71.07
2022-12-26T21:42:50.055Z,71.12
2022-12-26T21:45:16.679Z,70.76
2022-12-26T21:47:43.219Z,70.76
2022-12-26T21:50:10.009Z,70.37
2022-12-26T21:52:36.510Z,71.08
2022-12-26T21:55:21.756Z,70.42
2022-12-26T21:57:48.273Z,70.42
2022-12-26T22:00:15.370Z,70.61
2022-12-26T22:03:00.680Z,71.08
2022-12-26T22:05:28.677Z,70.71
2022-12-26T22:07:57.433Z,70.51
2022-12-26T22:10:44.178Z,70.22
2022-12-26T22:13:10.748Z,71.04
2022-12-26T22:16:03.445Z,70.26
2022-12-26T22:18:35.077Z,70.42
2022-12-26T22:21:06.609Z,70.17
2022-12-26T22:23:33.317Z,70.46
2022-12-26T22:26:00.344Z,69.71
2022-12-26T22:28:29.331Z,69.84
2022-12-26T22:30:56.675Z,69.62
2022-12-26T22:33:23.246Z,69.34
2022-12-26T22:35:49.817Z,69.29
2022-12-26T22:38:16.354Z,68.78
2022-12-26T22:40:52.674Z,68.38
2022-12-26T22:43:19.177Z,68.42
2022-12-26T22:45:45.703Z,68.27
2022-12-26T22:48:12.182Z,67.83
2022-12-26T22:50:42.123Z,67.90
2022-12-26T22:53:08.597Z,67.06
2022-12-26T22:55:35.162Z,66.61
2022-12-26T22:58:02.544Z,66.71
2022-12-26T23:00:29.249Z,66.79
2022-12-26T23:02:55.849Z,66.97
2022-12-26T23:05:22.742Z,66.40
2022-12-26T23:07:49.507Z,66.39
2022-12-26T23:10:22.812Z,66.01
2022-12-26T23:12:49.604Z,66.22
2022-12-26T23:15:27.188Z,65.89
2022-12-26T23:18:35.270Z,65.53
2022-12-26T23:21:26.695Z,65.43
2022-12-26T23:23:53.230Z,65.73
2022-12-26T23:26:20.037Z,65.83
2022-12-26T23:29:05.286Z,65.85
2022-12-26T23:31:31.898Z,65.58
2022-12-26T23:33:58.431Z,66.06
2022-12-26T23:36:25.004Z,65.55
2022-12-26T23:38:51.522Z,65.49
2022-12-26T23:41:18.048Z,64.94
2022-12-26T23:43:44.558Z,65.16
2022-12-26T23:46:11.113Z,64.99
2022-12-26T23:48:37.916Z,65.15
2022-12-26T23:51:06.546Z,65.00
2022-12-26T23:53:33.337Z,65.30
2022-12-26T23:55:59.894Z,65.14
2022-12-26T23:58:26.497Z,65.27
